Terminal Aerodrome Forecast
Issued by NWS

Home | Current Version | Previous Version | Text Only | Print | Product List | Glossary On
Versions: 1 2 3 4 5 6 7 8 9 10 11 12 13 14 15 16 17 18 19 20 21 22 23 24 25 26 27 28 29 30 31 32 33 34 35 36 37 38
000
FTUS43 KPAH 061614 AAB
TAFOWB
TAF AMD
KOWB 061614Z 0616/0712 33005KT 6SM BR OVC005
      TEMPO 0616/0618 4SM -RA BR
     FM061800 33008KT P6SM OVC008
     FM062000 31012G20KT P6SM BKN012
     FM070100 31008KT P6SM SCT030=

USA.gov is the U.S. government's official web portal to all federal, state and local government web resources and services.